sensor_id;sensor_type;location;lat;lon;timestamp;pressure;altitude;pressure_sealevel;temperature
82636;BMP280;72317;37.280;-121.948;2024-03-22T00:04:39;100889.09;;;21.96
82636;BMP280;72317;37.280;-121.948;2024-03-22T00:09:41;100843.94;;;21.69
82636;BMP280;72317;37.280;-121.948;2024-03-22T00:14:42;100837.69;;;21.43
82636;BMP280;72317;37.280;-121.948;2024-03-22T00:19:43;100770.19;;;21.47
82636;BMP280;72317;37.280;-121.948;2024-03-22T00:24:45;100760.56;;;21.30
82636;BMP280;72317;37.280;-121.948;2024-03-22T00:29:46;100739.44;;;21.34
82636;BMP280;72317;37.280;-121.948;2024-03-22T00:34:47;100684.28;;;21.05
82636;BMP280;72317;37.280;-121.948;2024-03-22T00:39:48;100656.72;;;21.28
82636;BMP280;72317;37.280;-121.948;2024-03-22T00:44:48;100614.13;;;20.96
82636;BMP280;72317;37.280;-121.948;2024-03-22T00:49:49;100631.66;;;20.95
82636;BMP280;72317;37.280;-121.948;2024-03-22T00:54:50;100526.09;;;20.86
82636;BMP280;72317;37.280;-121.948;2024-03-22T00:59:51;100533.84;;;20.88
82636;BMP280;72317;37.280;-121.948;2024-03-22T01:04:52;100445.88;;;20.53
82636;BMP280;72317;37.280;-121.948;2024-03-22T01:09:53;100303.41;;;20.34
82636;BMP280;72317;37.280;-121.948;2024-03-22T01:14:54;100253.75;;;20.43
82636;BMP280;72317;37.280;-121.948;2024-03-22T01:19:54;100177.38;;;20.15
82636;BMP280;72317;37.280;-121.948;2024-03-22T01:24:55;100125.88;;;19.99
82636;BMP280;72317;37.280;-121.948;2024-03-22T01:29:56;100044.44;;;20.05
82636;BMP280;72317;37.280;-121.948;2024-03-22T01:34:57;99866.47;;;19.97
82636;BMP280;72317;37.280;-121.948;2024-03-22T01:39:58;99766.44;;;19.82
82636;BMP280;72317;37.280;-121.948;2024-03-22T01:44:59;99695.16;;;19.87
82636;BMP280;72317;37.280;-121.948;2024-03-22T01:50:01;99551.38;;;19.44
82636;BMP280;72317;37.280;-121.948;2024-03-22T01:55:02;99468.97;;;19.47
82636;BMP280;72317;37.280;-121.948;2024-03-22T02:00:03;99411.47;;;19.30
82636;BMP280;72317;37.280;-121.948;2024-03-22T02:05:14;99293.72;;;18.91
82636;BMP280;72317;37.280;-121.948;2024-03-22T02:10:16;99334.72;;;19.02
82636;BMP280;72317;37.280;-121.948;2024-03-22T02:15:17;99255.44;;;18.71
82636;BMP280;72317;37.280;-121.948;2024-03-22T02:20:18;99261.03;;;18.67
82636;BMP280;72317;37.280;-121.948;2024-03-22T02:25:19;99177.84;;;18.55
82636;BMP280;72317;37.280;-121.948;2024-03-22T02:30:20;99088.22;;;18.40
82636;BMP280;72317;37.280;-121.948;2024-03-22T02:35:20;98805.72;;;18.18
82636;BMP280;72317;37.280;-121.948;2024-03-22T02:40:21;98768.38;;;18.22
82636;BMP280;72317;37.280;-121.948;2024-03-22T02:45:22;98641.16;;;18.18
82636;BMP280;72317;37.280;-121.948;2024-03-22T02:50:23;98527.41;;;18.09
82636;BMP280;72317;37.280;-121.948;2024-03-22T02:55:24;98459.97;;;17.96
82636;BMP280;72317;37.280;-121.948;2024-03-22T03:00:24;98476.66;;;17.95
82636;BMP280;72317;37.280;-121.948;2024-03-22T03:05:25;98412.31;;;17.75
82636;BMP280;72317;37.280;-121.948;2024-03-22T03:10:26;98459.41;;;17.78
82636;BMP280;72317;37.280;-121.948;2024-03-22T03:15:27;98492.41;;;17.67
82636;BMP280;72317;37.280;-121.948;2024-03-22T03:20:28;98496.63;;;17.68
82636;BMP280;72317;37.280;-121.948;2024-03-22T03:25:28;98472.44;;;17.64
82636;BMP280;72317;37.280;-121.948;2024-03-22T03:30:29;98513.09;;;17.55
82636;BMP280;72317;37.280;-121.948;2024-03-22T03:35:30;98495.72;;;17.47
82636;BMP280;72317;37.280;-121.948;2024-03-22T03:40:31;98422.69;;;17.23
82636;BMP280;72317;37.280;-121.948;2024-03-22T03:45:32;98357.09;;;17.28
82636;BMP280;72317;37.280;-121.948;2024-03-22T03:50:32;98341.84;;;17.16
82636;BMP280;72317;37.280;-121.948;2024-03-22T03:55:33;98277.13;;;17.13
82636;BMP280;72317;37.280;-121.948;2024-03-22T04:00:35;98287.53;;;17.05
82636;BMP280;72317;37.280;-121.948;2024-03-22T04:05:36;98242.09;;;16.94
82636;BMP280;72317;37.280;-121.948;2024-03-22T04:10:36;98162.06;;;16.73
82636;BMP280;72317;37.280;-121.948;2024-03-22T04:15:37;98086.72;;;16.66
82636;BMP280;72317;37.280;-121.948;2024-03-22T04:20:38;98102.19;;;16.65
82636;BMP280;72317;37.280;-121.948;2024-03-22T04:25:39;98062.88;;;16.50
82636;BMP280;72317;37.280;-121.948;2024-03-22T04:30:40;98018.59;;;16.32
82636;BMP280;72317;37.280;-121.948;2024-03-22T04:35:45;98029.16;;;16.30
82636;BMP280;72317;37.280;-121.948;2024-03-22T04:40:46;98031.34;;;16.17
82636;BMP280;72317;37.280;-121.948;2024-03-22T04:45:47;98034.03;;;16.17
82636;BMP280;72317;37.280;-121.948;2024-03-22T04:50:49;98060.03;;;16.15
82636;BMP280;72317;37.280;-121.948;2024-03-22T04:55:50;98103.88;;;16.10
82636;BMP280;72317;37.280;-121.948;2024-03-22T05:00:57;98139.66;;;15.95
82636;BMP280;72317;37.280;-121.948;2024-03-22T05:05:57;98166.72;;;15.86
82636;BMP280;72317;37.280;-121.948;2024-03-22T05:10:58;98158.88;;;15.97
82636;BMP280;72317;37.280;-121.948;2024-03-22T05:15:59;98210.94;;;15.56
82636;BMP280;72317;37.280;-121.948;2024-03-22T05:21:00;98250.31;;;15.81
82636;BMP280;72317;37.280;-121.948;2024-03-22T05:26:00;98250.06;;;15.69
82636;BMP280;72317;37.280;-121.948;2024-03-22T05:31:01;98379.75;;;15.38
82636;BMP280;72317;37.280;-121.948;2024-03-22T05:36:02;98366.28;;;15.48
82636;BMP280;72317;37.280;-121.948;2024-03-22T05:41:06;98336.56;;;15.38
82636;BMP280;72317;37.280;-121.948;2024-03-22T05:46:07;98393.72;;;15.37
82636;BMP280;72317;37.280;-121.948;2024-03-22T05:51:07;98487.06;;;15.25
82636;BMP280;72317;37.280;-121.948;2024-03-22T05:56:08;98447.66;;;15.37
82636;BMP280;72317;37.280;-121.948;2024-03-22T06:01:09;98443.47;;;15.27
82636;BMP280;72317;37.280;-121.948;2024-03-22T06:06:10;98537.69;;;15.21
82636;BMP280;72317;37.280;-121.948;2024-03-22T06:11:11;98554.75;;;15.09
82636;BMP280;72317;37.280;-121.948;2024-03-22T06:16:11;98616.19;;;15.14
82636;BMP280;72317;37.280;-121.948;2024-03-22T06:21:12;98590.09;;;15.11
82636;BMP280;72317;37.280;-121.948;2024-03-22T06:26:13;98504.53;;;15.11
82636;BMP280;72317;37.280;-121.948;2024-03-22T06:31:14;98369.69;;;15.02
82636;BMP280;72317;37.280;-121.948;2024-03-22T06:36:14;98333.69;;;14.87
82636;BMP280;72317;37.280;-121.948;2024-03-22T06:41:15;98414.94;;;14.58
82636;BMP280;72317;37.280;-121.948;2024-03-22T06:46:16;98304.94;;;14.75
82636;BMP280;72317;37.280;-121.948;2024-03-22T06:51:17;98202.22;;;14.73
82636;BMP280;72317;37.280;-121.948;2024-03-22T06:56:17;98261.50;;;14.64
82636;BMP280;72317;37.280;-121.948;2024-03-22T07:01:18;98276.75;;;14.58
82636;BMP280;72317;37.280;-121.948;2024-03-22T07:06:19;98178.25;;;14.66
82636;BMP280;72317;37.280;-121.948;2024-03-22T07:11:20;98225.88;;;14.50
82636;BMP280;72317;37.280;-121.948;2024-03-22T07:16:21;98157.75;;;14.77
82636;BMP280;72317;37.280;-121.948;2024-03-22T07:21:21;98125.13;;;14.57
82636;BMP280;72317;37.280;-121.948;2024-03-22T07:26:22;98186.00;;;14.27
82636;BMP280;72317;37.280;-121.948;2024-03-22T07:31:23;98361.22;;;13.80
82636;BMP280;72317;37.280;-121.948;2024-03-22T07:36:23;98407.28;;;14.04
82636;BMP280;72317;37.280;-121.948;2024-03-22T07:41:24;98486.63;;;13.77
82636;BMP280;72317;37.280;-121.948;2024-03-22T07:46:25;98435.66;;;13.74
82636;BMP280;72317;37.280;-121.948;2024-03-22T07:51:26;98450.03;;;13.80
82636;BMP280;72317;37.280;-121.948;2024-03-22T07:56:27;98361.94;;;13.93
82636;BMP280;72317;37.280;-121.948;2024-03-22T08:01:28;98357.69;;;13.83
82636;BMP280;72317;37.280;-121.948;2024-03-22T08:06:28;98314.63;;;13.83
82636;BMP280;72317;37.280;-121.948;2024-03-22T08:11:29;98343.06;;;13.71
82636;BMP280;72317;37.280;-121.948;2024-03-22T08:16:30;98539.41;;;13.62
82636;BMP280;72317;37.280;-121.948;2024-03-22T08:21:31;98513.91;;;13.67
82636;BMP280;72317;37.280;-121.948;2024-03-22T08:26:31;98364.75;;;13.89
82636;BMP280;72317;37.280;-121.948;2024-03-22T08:31:32;98302.84;;;13.68
82636;BMP280;72317;37.280;-121.948;2024-03-22T08:36:33;98362.41;;;13.57
82636;BMP280;72317;37.280;-121.948;2024-03-22T08:41:34;98347.88;;;13.54
82636;BMP280;72317;37.280;-121.948;2024-03-22T08:46:34;98480.28;;;13.24
82636;BMP280;72317;37.280;-121.948;2024-03-22T08:51:35;98712.59;;;13.26
82636;BMP280;72317;37.280;-121.948;2024-03-22T08:56:36;98795.88;;;13.30
82636;BMP280;72317;37.280;-121.948;2024-03-22T09:01:37;98893.47;;;13.30
82636;BMP280;72317;37.280;-121.948;2024-03-22T09:06:37;98910.50;;;13.56
82636;BMP280;72317;37.280;-121.948;2024-03-22T09:11:38;98664.16;;;13.55
82636;BMP280;72317;37.280;-121.948;2024-03-22T09:16:39;98394.03;;;13.53
82636;BMP280;72317;37.280;-121.948;2024-03-22T09:21:40;98299.88;;;13.31
82636;BMP280;72317;37.280;-121.948;2024-03-22T09:26:41;98350.13;;;13.21
82636;BMP280;72317;37.280;-121.948;2024-03-22T09:31:41;98409.44;;;12.92
82636;BMP280;72317;37.280;-121.948;2024-03-22T09:36:42;98390.28;;;13.16
82636;BMP280;72317;37.280;-121.948;2024-03-22T09:41:43;98333.63;;;13.10
82636;BMP280;72317;37.280;-121.948;2024-03-22T09:46:46;98276.50;;;13.41
82636;BMP280;72317;37.280;-121.948;2024-03-22T09:51:48;98286.06;;;13.20
82636;BMP280;72317;37.280;-121.948;2024-03-22T09:56:50;98325.66;;;13.19
82636;BMP280;72317;37.280;-121.948;2024-03-22T10:01:52;98503.50;;;12.92
82636;BMP280;72317;37.280;-121.948;2024-03-22T10:06:53;98494.88;;;12.85
82636;BMP280;72317;37.280;-121.948;2024-03-22T10:11:54;98457.28;;;12.97
82636;BMP280;72317;37.280;-121.948;2024-03-22T10:16:55;98607.47;;;12.66
82636;BMP280;72317;37.280;-121.948;2024-03-22T10:22:05;98568.97;;;12.86
82636;BMP280;72317;37.280;-121.948;2024-03-22T10:27:05;98663.25;;;12.62
82636;BMP280;72317;37.280;-121.948;2024-03-22T10:32:06;98584.13;;;12.92
82636;BMP280;72317;37.280;-121.948;2024-03-22T10:37:13;98536.06;;;13.07
82636;BMP280;72317;37.280;-121.948;2024-03-22T10:42:16;98611.41;;;12.78
82636;BMP280;72317;37.280;-121.948;2024-03-22T10:47:18;98594.03;;;12.95
82636;BMP280;72317;37.280;-121.948;2024-03-22T10:52:20;98687.00;;;12.64
82636;BMP280;72317;37.280;-121.948;2024-03-22T10:57:21;98756.81;;;12.96
82636;BMP280;72317;37.280;-121.948;2024-03-22T11:02:24;98787.47;;;12.83
82636;BMP280;72317;37.280;-121.948;2024-03-22T11:07:31;98919.00;;;12.54
82636;BMP280;72317;37.280;-121.948;2024-03-22T11:12:32;98944.03;;;12.51
82636;BMP280;72317;37.280;-121.948;2024-03-22T11:17:32;98942.00;;;12.55
82636;BMP280;72317;37.280;-121.948;2024-03-22T11:22:34;98842.16;;;12.76
82636;BMP280;72317;37.280;-121.948;2024-03-22T11:27:35;98770.09;;;12.55
82636;BMP280;72317;37.280;-121.948;2024-03-22T11:32:36;98796.28;;;12.67
82636;BMP280;72317;37.280;-121.948;2024-03-22T11:37:38;98794.59;;;12.57
82636;BMP280;72317;37.280;-121.948;2024-03-22T11:42:40;98785.97;;;12.49
82636;BMP280;72317;37.280;-121.948;2024-03-22T11:47:42;98868.34;;;12.36
82636;BMP280;72317;37.280;-121.948;2024-03-22T11:52:43;99063.13;;;11.97
82636;BMP280;72317;37.280;-121.948;2024-03-22T11:57:50;99039.75;;;12.18
82636;BMP280;72317;37.280;-121.948;2024-03-22T12:02:52;99026.53;;;12.07
82636;BMP280;72317;37.280;-121.948;2024-03-22T12:07:53;99016.09;;;11.89
82636;BMP280;72317;37.280;-121.948;2024-03-22T12:12:54;99140.47;;;11.79
82636;BMP280;72317;37.280;-121.948;2024-03-22T12:17:54;99156.31;;;11.66
82636;BMP280;72317;37.280;-121.948;2024-03-22T12:22:55;99105.13;;;11.57
82636;BMP280;72317;37.280;-121.948;2024-03-22T12:27:56;98967.28;;;11.74
82636;BMP280;72317;37.280;-121.948;2024-03-22T12:32:57;98792.25;;;11.67
82636;BMP280;72317;37.280;-121.948;2024-03-22T12:37:58;98767.59;;;11.56
82636;BMP280;72317;37.280;-121.948;2024-03-22T12:42:59;98621.63;;;11.37
82636;BMP280;72317;37.280;-121.948;2024-03-22T12:48:00;98489.25;;;11.63
82636;BMP280;72317;37.280;-121.948;2024-03-22T12:53:01;98439.16;;;11.60
82636;BMP280;72317;37.280;-121.948;2024-03-22T12:58:01;98664.44;;;11.60
82636;BMP280;72317;37.280;-121.948;2024-03-22T13:03:02;98724.72;;;11.52
82636;BMP280;72317;37.280;-121.948;2024-03-22T13:08:03;98793.34;;;11.49
82636;BMP280;72317;37.280;-121.948;2024-03-22T13:13:04;99052.34;;;11.20
82636;BMP280;72317;37.280;-121.948;2024-03-22T13:18:05;99364.97;;;11.03
82636;BMP280;72317;37.280;-121.948;2024-03-22T13:23:06;99378.19;;;11.28
82636;BMP280;72317;37.280;-121.948;2024-03-22T13:28:07;99320.31;;;11.31
82636;BMP280;72317;37.280;-121.948;2024-03-22T13:33:07;99292.38;;;11.32
82636;BMP280;72317;37.280;-121.948;2024-03-22T13:38:08;99290.50;;;11.25
82636;BMP280;72317;37.280;-121.948;2024-03-22T13:43:09;99248.66;;;11.35
82636;BMP280;72317;37.280;-121.948;2024-03-22T13:48:11;99267.84;;;11.33
82636;BMP280;72317;37.280;-121.948;2024-03-22T13:53:12;99199.94;;;11.40
82636;BMP280;72317;37.280;-121.948;2024-03-22T13:58:12;99239.88;;;11.34
82636;BMP280;72317;37.280;-121.948;2024-03-22T14:03:13;99307.31;;;11.33
82636;BMP280;72317;37.280;-121.948;2024-03-22T14:08:14;99480.34;;;10.75
82636;BMP280;72317;37.280;-121.948;2024-03-22T14:13:15;99477.25;;;10.83
82636;BMP280;72317;37.280;-121.948;2024-03-22T14:18:16;99337.06;;;10.97
82636;BMP280;72317;37.280;-121.948;2024-03-22T14:23:16;99145.31;;;10.92
82636;BMP280;72317;37.280;-121.948;2024-03-22T14:28:17;98767.09;;;11.41
82636;BMP280;72317;37.280;-121.948;2024-03-22T14:33:18;98527.38;;;11.55
82636;BMP280;72317;37.280;-121.948;2024-03-22T14:38:19;98509.81;;;11.70
82636;BMP280;72317;37.280;-121.948;2024-03-22T14:43:20;98630.69;;;11.79
82636;BMP280;72317;37.280;-121.948;2024-03-22T14:48:21;98669.59;;;11.87
82636;BMP280;72317;37.280;-121.948;2024-03-22T14:53:22;98672.44;;;11.96
82636;BMP280;72317;37.280;-121.948;2024-03-22T14:58:26;98709.25;;;11.96
82636;BMP280;72317;37.280;-121.948;2024-03-22T15:03:27;98796.59;;;12.00
82636;BMP280;72317;37.280;-121.948;2024-03-22T15:08:28;98843.47;;;12.16
82636;BMP280;72317;37.280;-121.948;2024-03-22T15:13:29;98914.22;;;12.25
82636;BMP280;72317;37.280;-121.948;2024-03-22T15:18:30;98830.22;;;12.77
82636;BMP280;72317;37.280;-121.948;2024-03-22T15:23:30;98736.78;;;13.14
82636;BMP280;72317;37.280;-121.948;2024-03-22T15:28:31;98465.41;;;13.57
82636;BMP280;72317;37.280;-121.948;2024-03-22T15:33:32;97834.69;;;15.18
82636;BMP280;72317;37.280;-121.948;2024-03-22T15:38:33;97882.25;;;13.62
82636;BMP280;72317;37.280;-121.948;2024-03-22T15:43:33;98089.19;;;13.47
82636;BMP280;72317;37.280;-121.948;2024-03-22T15:48:34;98032.53;;;13.41
82636;BMP280;72317;37.280;-121.948;2024-03-22T15:53:35;97933.34;;;13.52
82636;BMP280;72317;37.280;-121.948;2024-03-22T15:58:36;97875.66;;;13.81
82636;BMP280;72317;37.280;-121.948;2024-03-22T16:03:36;97829.28;;;14.70
82636;BMP280;72317;37.280;-121.948;2024-03-22T16:08:37;97968.97;;;14.72
82636;BMP280;72317;37.280;-121.948;2024-03-22T16:13:38;98014.16;;;14.86
82636;BMP280;72317;37.280;-121.948;2024-03-22T16:18:39;97985.19;;;14.63
82636;BMP280;72317;37.280;-121.948;2024-03-22T16:23:40;98052.81;;;15.16
82636;BMP280;72317;37.280;-121.948;2024-03-22T16:28:40;98131.66;;;15.02
82636;BMP280;72317;37.280;-121.948;2024-03-22T16:33:41;98103.84;;;15.38
82636;BMP280;72317;37.280;-121.948;2024-03-22T16:38:42;98371.44;;;16.15
82636;BMP280;72317;37.280;-121.948;2024-03-22T16:43:43;98663.13;;;16.79
82636;BMP280;72317;37.280;-121.948;2024-03-22T16:48:44;98882.75;;;16.65
82636;BMP280;72317;37.280;-121.948;2024-03-22T16:53:44;99581.47;;;18.16
82636;BMP280;72317;37.280;-121.948;2024-03-22T16:58:45;98765.44;;;16.44
82636;BMP280;72317;37.280;-121.948;2024-03-22T17:03:46;99082.81;;;17.09
82636;BMP280;72317;37.280;-121.948;2024-03-22T17:08:47;99047.81;;;16.52
82636;BMP280;72317;37.280;-121.948;2024-03-22T17:13:48;98879.38;;;16.83
82636;BMP280;72317;37.280;-121.948;2024-03-22T17:18:48;98938.47;;;17.12
82636;BMP280;72317;37.280;-121.948;2024-03-22T17:23:50;98982.50;;;17.12
82636;BMP280;72317;37.280;-121.948;2024-03-22T17:28:51;99093.72;;;17.36
82636;BMP280;72317;37.280;-121.948;2024-03-22T17:33:52;99123.88;;;17.84
82636;BMP280;72317;37.280;-121.948;2024-03-22T17:38:52;99375.22;;;18.02
82636;BMP280;72317;37.280;-121.948;2024-03-22T17:43:53;99352.66;;;18.14
82636;BMP280;72317;37.280;-121.948;2024-03-22T17:48:54;99332.78;;;18.84
82636;BMP280;72317;37.280;-121.948;2024-03-22T17:53:55;99523.91;;;19.87
82636;BMP280;72317;37.280;-121.948;2024-03-22T17:58:55;99687.16;;;19.93
82636;BMP280;72317;37.280;-121.948;2024-03-22T18:03:56;99713.44;;;19.96
82636;BMP280;72317;37.280;-121.948;2024-03-22T18:08:57;99641.69;;;20.90
82636;BMP280;72317;37.280;-121.948;2024-03-22T18:13:58;99712.69;;;22.45
82636;BMP280;72317;37.280;-121.948;2024-03-22T18:18:59;100868.38;;;24.46
82636;BMP280;72317;37.280;-121.948;2024-03-22T18:23:59;100771.19;;;23.28
82636;BMP280;72317;37.280;-121.948;2024-03-22T18:29:00;100824.78;;;25.26
82636;BMP280;72317;37.280;-121.948;2024-03-22T18:34:01;100838.53;;;25.41
82636;BMP280;72317;37.280;-121.948;2024-03-22T18:39:02;100894.81;;;24.76
82636;BMP280;72317;37.280;-121.948;2024-03-22T18:44:02;100898.47;;;24.55
82636;BMP280;72317;37.280;-121.948;2024-03-22T18:49:03;100937.41;;;25.56
82636;BMP280;72317;37.280;-121.948;2024-03-22T18:54:04;100906.69;;;24.82
82636;BMP280;72317;37.280;-121.948;2024-03-22T18:59:05;100882.88;;;25.16
82636;BMP280;72317;37.280;-121.948;2024-03-22T19:04:05;100797.81;;;23.86
82636;BMP280;72317;37.280;-121.948;2024-03-22T19:09:06;100842.25;;;24.87
82636;BMP280;72317;37.280;-121.948;2024-03-22T19:14:07;100863.22;;;24.38
82636;BMP280;72317;37.280;-121.948;2024-03-22T19:19:08;100576.34;;;21.33
82636;BMP280;72317;37.280;-121.948;2024-03-22T19:24:08;100383.25;;;20.66
82636;BMP280;72317;37.280;-121.948;2024-03-22T19:29:13;100174.81;;;19.99
82636;BMP280;72317;37.280;-121.948;2024-03-22T19:34:14;100063.63;;;20.01
82636;BMP280;72317;37.280;-121.948;2024-03-22T19:39:15;100054.84;;;19.75
82636;BMP280;72317;37.280;-121.948;2024-03-22T19:44:16;100094.09;;;20.18
82636;BMP280;72317;37.280;-121.948;2024-03-22T19:49:17;99943.31;;;19.66
82636;BMP280;72317;37.280;-121.948;2024-03-22T19:54:17;100041.09;;;20.22
82636;BMP280;72317;37.280;-121.948;2024-03-22T19:59:18;99974.22;;;20.03
82636;BMP280;72317;37.280;-121.948;2024-03-22T20:04:19;99998.06;;;20.70
82636;BMP280;72317;37.280;-121.948;2024-03-22T20:09:20;100128.28;;;21.12
82636;BMP280;72317;37.280;-121.948;2024-03-22T20:14:20;100169.00;;;21.15
82636;BMP280;72317;37.280;-121.948;2024-03-22T20:19:21;100309.41;;;21.78
82636;BMP280;72317;37.280;-121.948;2024-03-22T20:24:22;100053.78;;;20.47
82636;BMP280;72317;37.280;-121.948;2024-03-22T20:29:23;99847.75;;;19.99
82636;BMP280;72317;37.280;-121.948;2024-03-22T20:34:23;99802.94;;;20.40
